sensor_id;sensor_type;location;lat;lon;timestamp;temperature;humidity
3023;DHT22;1521;53.584;9.938;2023-04-26T00:02:12;3.90;1.00
3023;DHT22;1521;53.584;9.938;2023-04-26T00:04:38;3.80;1.00
3023;DHT22;1521;53.584;9.938;2023-04-26T00:07:04;3.80;99.90
3023;DHT22;1521;53.584;9.938;2023-04-26T00:09:29;3.80;99.90
3023;DHT22;1521;53.584;9.938;2023-04-26T00:11:56;3.80;99.90
3023;DHT22;1521;53.584;9.938;2023-04-26T00:14:21;3.80;99.90
3023;DHT22;1521;53.584;9.938;2023-04-26T00:16:47;3.80;99.90
3023;DHT22;1521;53.584;9.938;2023-04-26T00:19:13;3.80;99.90
3023;DHT22;1521;53.584;9.938;2023-04-26T00:21:39;3.90;99.90
3023;DHT22;1521;53.584;9.938;2023-04-26T00:24:05;4.00;1.00
3023;DHT22;1521;53.584;9.938;2023-04-26T00:26:31;4.00;1.00
3023;DHT22;1521;53.584;9.938;2023-04-26T00:28:58;4.00;1.00
3023;DHT22;1521;53.584;9.938;2023-04-26T00:31:24;4.00;89.80
3023;DHT22;1521;53.584;9.938;2023-04-26T00:33:50;4.00;99.90
3023;DHT22;1521;53.584;9.938;2023-04-26T00:36:15;3.90;1.00
3023;DHT22;1521;53.584;9.938;2023-04-26T00:38:44;4.00;1.00
3023;DHT22;1521;53.584;9.938;2023-04-26T00:41:10;4.00;1.00
3023;DHT22;1521;53.584;9.938;2023-04-26T00:43:35;4.00;99.90
3023;DHT22;1521;53.584;9.938;2023-04-26T00:46:01;4.00;99.90
3023;DHT22;1521;53.584;9.938;2023-04-26T00:48:27;3.90;99.90
3023;DHT22;1521;53.584;9.938;2023-04-26T00:50:53;3.90;99.90
3023;DHT22;1521;53.584;9.938;2023-04-26T00:53:19;3.90;99.90
3023;DHT22;1521;53.584;9.938;2023-04-26T00:55:46;4.00;51.70
3023;DHT22;1521;53.584;9.938;2023-04-26T00:58:12;4.00;1.00
3023;DHT22;1521;53.584;9.938;2023-04-26T01:00:37;4.00;1.00
3023;DHT22;1521;53.584;9.938;2023-04-26T01:03:03;4.00;1.00
3023;DHT22;1521;53.584;9.938;2023-04-26T01:05:29;4.00;99.90
3023;DHT22;1521;53.584;9.938;2023-04-26T01:07:55;4.00;99.90
3023;DHT22;1521;53.584;9.938;2023-04-26T01:10:20;4.00;99.90
3023;DHT22;1521;53.584;9.938;2023-04-26T01:12:46;4.00;99.90
3023;DHT22;1521;53.584;9.938;2023-04-26T01:15:12;4.00;99.90
3023;DHT22;1521;53.584;9.938;2023-04-26T01:17:38;3.90;99.90
3023;DHT22;1521;53.584;9.938;2023-04-26T01:20:05;3.90;99.90
3023;DHT22;1521;53.584;9.938;2023-04-26T01:22:33;3.90;1.00
3023;DHT22;1521;53.584;9.938;2023-04-26T01:25:00;3.80;1.00
3023;DHT22;1521;53.584;9.938;2023-04-26T01:27:28;3.80;1.00
3023;DHT22;1521;53.584;9.938;2023-04-26T01:29:53;3.80;1.00
3023;DHT22;1521;53.584;9.938;2023-04-26T01:32:19;3.70;1.00
3023;DHT22;1521;53.584;9.938;2023-04-26T01:34:45;3.70;99.90
3023;DHT22;1521;53.584;9.938;2023-04-26T01:37:11;3.70;99.90
3023;DHT22;1521;53.584;9.938;2023-04-26T01:39:36;3.60;1.00
3023;DHT22;1521;53.584;9.938;2023-04-26T01:42:03;3.60;1.00
3023;DHT22;1521;53.584;9.938;2023-04-26T01:44:29;3.60;1.00
3023;DHT22;1521;53.584;9.938;2023-04-26T01:46:54;3.50;1.00
3023;DHT22;1521;53.584;9.938;2023-04-26T01:49:20;3.50;10.70
3023;DHT22;1521;53.584;9.938;2023-04-26T01:51:46;3.50;99.90
3023;DHT22;1521;53.584;9.938;2023-04-26T01:54:12;3.50;99.90
3023;DHT22;1521;53.584;9.938;2023-04-26T01:56:37;3.50;1.00
3023;DHT22;1521;53.584;9.938;2023-04-26T01:59:03;3.50;1.00
3023;DHT22;1521;53.584;9.938;2023-04-26T02:01:28;3.50;1.00
3023;DHT22;1521;53.584;9.938;2023-04-26T02:03:54;3.60;99.90
3023;DHT22;1521;53.584;9.938;2023-04-26T02:06:20;3.60;99.90
3023;DHT22;1521;53.584;9.938;2023-04-26T02:08:48;3.50;23.60
3023;DHT22;1521;53.584;9.938;2023-04-26T02:11:14;3.60;99.90
3023;DHT22;1521;53.584;9.938;2023-04-26T02:13:39;3.60;1.00
3023;DHT22;1521;53.584;9.938;2023-04-26T02:16:05;3.60;1.00
3023;DHT22;1521;53.584;9.938;2023-04-26T02:18:32;3.60;1.00
3023;DHT22;1521;53.584;9.938;2023-04-26T02:20:58;3.70;99.90
3023;DHT22;1521;53.584;9.938;2023-04-26T02:23:24;3.70;1.00
3023;DHT22;1521;53.584;9.938;2023-04-26T02:25:49;3.70;43.30
3023;DHT22;1521;53.584;9.938;2023-04-26T02:28:15;3.70;1.00
3023;DHT22;1521;53.584;9.938;2023-04-26T02:30:41;3.70;1.00
3023;DHT22;1521;53.584;9.938;2023-04-26T02:33:07;3.80;99.90
3023;DHT22;1521;53.584;9.938;2023-04-26T02:35:34;3.70;99.90
3023;DHT22;1521;53.584;9.938;2023-04-26T02:38:00;3.70;99.90
3023;DHT22;1521;53.584;9.938;2023-04-26T02:40:26;3.60;99.90
3023;DHT22;1521;53.584;9.938;2023-04-26T02:42:51;3.60;58.80
3023;DHT22;1521;53.584;9.938;2023-04-26T02:45:17;3.50;1.00
3023;DHT22;1521;53.584;9.938;2023-04-26T02:47:42;3.40;99.90
3023;DHT22;1521;53.584;9.938;2023-04-26T02:50:08;3.40;1.00
3023;DHT22;1521;53.584;9.938;2023-04-26T02:52:35;3.40;1.30
3023;DHT22;1521;53.584;9.938;2023-04-26T02:55:02;3.30;1.00
3023;DHT22;1521;53.584;9.938;2023-04-26T02:57:28;3.20;1.00
3023;DHT22;1521;53.584;9.938;2023-04-26T02:59:54;3.20;1.00
3023;DHT22;1521;53.584;9.938;2023-04-26T03:02:20;3.20;99.90
3023;DHT22;1521;53.584;9.938;2023-04-26T03:04:46;3.30;1.00
3023;DHT22;1521;53.584;9.938;2023-04-26T03:07:12;3.30;1.00
3023;DHT22;1521;53.584;9.938;2023-04-26T03:09:37;3.30;1.00
3023;DHT22;1521;53.584;9.938;2023-04-26T03:12:05;3.30;1.00
3023;DHT22;1521;53.584;9.938;2023-04-26T03:14:31;3.30;1.00
3023;DHT22;1521;53.584;9.938;2023-04-26T03:16:58;3.40;1.00
3023;DHT22;1521;53.584;9.938;2023-04-26T03:19:23;3.40;1.00
3023;DHT22;1521;53.584;9.938;2023-04-26T03:21:49;3.40;1.00
3023;DHT22;1521;53.584;9.938;2023-04-26T03:24:15;3.40;1.00
3023;DHT22;1521;53.584;9.938;2023-04-26T03:26:40;3.30;1.00
3023;DHT22;1521;53.584;9.938;2023-04-26T03:29:06;3.30;1.00
3023;DHT22;1521;53.584;9.938;2023-04-26T03:31:32;3.20;1.00
3023;DHT22;1521;53.584;9.938;2023-04-26T03:33:57;3.20;1.00
3023;DHT22;1521;53.584;9.938;2023-04-26T03:36:23;3.20;1.00
3023;DHT22;1521;53.584;9.938;2023-04-26T03:38:48;3.20;1.00
3023;DHT22;1521;53.584;9.938;2023-04-26T03:41:14;3.10;7.20
3023;DHT22;1521;53.584;9.938;2023-04-26T03:43:41;3.10;34.60
3023;DHT22;1521;53.584;9.938;2023-04-26T03:46:06;3.10;69.60
3023;DHT22;1521;53.584;9.938;2023-04-26T03:48:32;3.10;93.80
3023;DHT22;1521;53.584;9.938;2023-04-26T03:50:57;3.20;99.90
3023;DHT22;1521;53.584;9.938;2023-04-26T03:53:23;3.20;99.90
3023;DHT22;1521;53.584;9.938;2023-04-26T03:55:48;3.20;99.90
3023;DHT22;1521;53.584;9.938;2023-04-26T03:58:14;3.20;99.90
3023;DHT22;1521;53.584;9.938;2023-04-26T04:00:40;3.20;99.90
3023;DHT22;1521;53.584;9.938;2023-04-26T04:03:06;3.20;99.90
3023;DHT22;1521;53.584;9.938;2023-04-26T04:05:32;3.20;99.90
3023;DHT22;1521;53.584;9.938;2023-04-26T04:07:58;3.20;99.90
3023;DHT22;1521;53.584;9.938;2023-04-26T04:10:24;3.20;99.90
3023;DHT22;1521;53.584;9.938;2023-04-26T04:12:50;3.30;99.90
3023;DHT22;1521;53.584;9.938;2023-04-26T04:15:16;3.30;99.90
3023;DHT22;1521;53.584;9.938;2023-04-26T04:17:43;3.40;99.90
3023;DHT22;1521;53.584;9.938;2023-04-26T04:20:09;3.40;71.70
3023;DHT22;1521;53.584;9.938;2023-04-26T04:22:35;3.30;35.10
3023;DHT22;1521;53.584;9.938;2023-04-26T04:25:00;3.30;8.40
3023;DHT22;1521;53.584;9.938;2023-04-26T04:27:28;3.20;1.50
3023;DHT22;1521;53.584;9.938;2023-04-26T04:29:54;3.30;1.10
3023;DHT22;1521;53.584;9.938;2023-04-26T04:32:21;3.20;2.50
3023;DHT22;1521;53.584;9.938;2023-04-26T04:34:47;3.20;3.70
3023;DHT22;1521;53.584;9.938;2023-04-26T04:37:13;3.20;4.80
3023;DHT22;1521;53.584;9.938;2023-04-26T04:39:38;3.20;3.20
3023;DHT22;1521;53.584;9.938;2023-04-26T04:42:04;3.10;18.30
3023;DHT22;1521;53.584;9.938;2023-04-26T04:44:30;3.10;37.70
3023;DHT22;1521;53.584;9.938;2023-04-26T04:46:55;3.20;77.40
3023;DHT22;1521;53.584;9.938;2023-04-26T04:49:21;3.20;99.90
3023;DHT22;1521;53.584;9.938;2023-04-26T04:51:49;3.30;99.90
3023;DHT22;1521;53.584;9.938;2023-04-26T04:54:16;3.40;99.90
3023;DHT22;1521;53.584;9.938;2023-04-26T04:56:43;3.50;99.90
3023;DHT22;1521;53.584;9.938;2023-04-26T04:59:09;3.50;99.90
3023;DHT22;1521;53.584;9.938;2023-04-26T05:01:35;3.60;99.90
3023;DHT22;1521;53.584;9.938;2023-04-26T05:04:01;3.70;99.90
3023;DHT22;1521;53.584;9.938;2023-04-26T05:06:28;3.80;99.90
3023;DHT22;1521;53.584;9.938;2023-04-26T05:08:54;3.80;77.10
3023;DHT22;1521;53.584;9.938;2023-04-26T05:11:20;3.80;16.40
3023;DHT22;1521;53.584;9.938;2023-04-26T05:13:46;3.90;1.00
3023;DHT22;1521;53.584;9.938;2023-04-26T05:16:12;3.90;1.00
3023;DHT22;1521;53.584;9.938;2023-04-26T05:18:38;4.00;1.00
3023;DHT22;1521;53.584;9.938;2023-04-26T05:21:03;4.10;1.00
3023;DHT22;1521;53.584;9.938;2023-04-26T05:23:29;4.00;99.90
3023;DHT22;1521;53.584;9.938;2023-04-26T05:25:55;4.10;99.90
3023;DHT22;1521;53.584;9.938;2023-04-26T05:28:21;4.10;99.90
3023;DHT22;1521;53.584;9.938;2023-04-26T05:30:47;4.10;3.00
3023;DHT22;1521;53.584;9.938;2023-04-26T05:33:14;4.00;99.90
3023;DHT22;1521;53.584;9.938;2023-04-26T05:35:40;4.00;1.00
3023;DHT22;1521;53.584;9.938;2023-04-26T05:38:06;4.10;1.00
3023;DHT22;1521;53.584;9.938;2023-04-26T05:40:31;4.30;64.70
3023;DHT22;1521;53.584;9.938;2023-04-26T05:42:57;4.60;1.00
3023;DHT22;1521;53.584;9.938;2023-04-26T05:45:22;4.90;99.90
3023;DHT22;1521;53.584;9.938;2023-04-26T05:47:48;5.20;99.90
3023;DHT22;1521;53.584;9.938;2023-04-26T05:50:14;5.30;1.00
3023;DHT22;1521;53.584;9.938;2023-04-26T05:52:40;5.30;99.90
3023;DHT22;1521;53.584;9.938;2023-04-26T05:55:06;5.20;1.00
3023;DHT22;1521;53.584;9.938;2023-04-26T05:57:31;5.10;99.90
3023;DHT22;1521;53.584;9.938;2023-04-26T05:59:57;5.10;99.90
3023;DHT22;1521;53.584;9.938;2023-04-26T06:02:22;5.10;99.90
3023;DHT22;1521;53.584;9.938;2023-04-26T06:04:48;5.10;99.90
3023;DHT22;1521;53.584;9.938;2023-04-26T06:07:14;5.10;99.90
3023;DHT22;1521;53.584;9.938;2023-04-26T06:09:41;5.30;99.90
3023;DHT22;1521;53.584;9.938;2023-04-26T06:12:07;5.50;1.00
3023;DHT22;1521;53.584;9.938;2023-04-26T06:14:32;5.80;1.00
3023;DHT22;1521;53.584;9.938;2023-04-26T06:16:58;6.00;99.90
3023;DHT22;1521;53.584;9.938;2023-04-26T06:19:24;6.20;99.90
3023;DHT22;1521;53.584;9.938;2023-04-26T06:21:49;6.20;99.90
3023;DHT22;1521;53.584;9.938;2023-04-26T06:24:16;6.30;99.90
3023;DHT22;1521;53.584;9.938;2023-04-26T06:26:42;6.50;99.90
3023;DHT22;1521;53.584;9.938;2023-04-26T06:29:07;6.60;99.90
3023;DHT22;1521;53.584;9.938;2023-04-26T06:31:33;6.80;99.90
3023;DHT22;1521;53.584;9.938;2023-04-26T06:33:58;6.90;78.50
3023;DHT22;1521;53.584;9.938;2023-04-26T06:36:24;7.00;26.10
3023;DHT22;1521;53.584;9.938;2023-04-26T06:38:50;7.20;38.60
3023;DHT22;1521;53.584;9.938;2023-04-26T06:41:16;7.40;28.10
3023;DHT22;1521;53.584;9.938;2023-04-26T06:43:41;7.40;1.00
3023;DHT22;1521;53.584;9.938;2023-04-26T06:46:07;7.50;1.00
3023;DHT22;1521;53.584;9.938;2023-04-26T06:48:32;7.60;1.00
3023;DHT22;1521;53.584;9.938;2023-04-26T06:50:58;7.90;1.00
3023;DHT22;1521;53.584;9.938;2023-04-26T06:53:28;8.20;1.00
3023;DHT22;1521;53.584;9.938;2023-04-26T06:55:54;8.50;1.00
3023;DHT22;1521;53.584;9.938;2023-04-26T06:58:21;8.70;1.00
3023;DHT22;1521;53.584;9.938;2023-04-26T07:00:47;8.70;1.00
3023;DHT22;1521;53.584;9.938;2023-04-26T07:03:12;8.80;1.00
3023;DHT22;1521;53.584;9.938;2023-04-26T07:05:38;8.80;1.00
3023;DHT22;1521;53.584;9.938;2023-04-26T07:08:05;9.00;1.00
3023;DHT22;1521;53.584;9.938;2023-04-26T07:10:30;9.30;1.00
3023;DHT22;1521;53.584;9.938;2023-04-26T07:12:56;9.40;1.00
3023;DHT22;1521;53.584;9.938;2023-04-26T07:15:22;9.50;1.00
3023;DHT22;1521;53.584;9.938;2023-04-26T07:17:47;9.50;1.00
3023;DHT22;1521;53.584;9.938;2023-04-26T07:20:13;9.30;1.00
3023;DHT22;1521;53.584;9.938;2023-04-26T07:22:44;9.50;1.00
3023;DHT22;1521;53.584;9.938;2023-04-26T07:25:09;9.50;1.00
3023;DHT22;1521;53.584;9.938;2023-04-26T07:27:35;9.60;1.00
3023;DHT22;1521;53.584;9.938;2023-04-26T07:30:01;9.90;1.00
3023;DHT22;1521;53.584;9.938;2023-04-26T07:32:26;10.10;1.00
3023;DHT22;1521;53.584;9.938;2023-04-26T07:34:52;10.30;1.00
3023;DHT22;1521;53.584;9.938;2023-04-26T07:37:17;10.60;1.00
3023;DHT22;1521;53.584;9.938;2023-04-26T07:39:43;10.70;1.00
3023;DHT22;1521;53.584;9.938;2023-04-26T07:42:09;10.70;1.00
3023;DHT22;1521;53.584;9.938;2023-04-26T07:44:34;10.90;1.00
3023;DHT22;1521;53.584;9.938;2023-04-26T07:47:00;10.90;1.00
3023;DHT22;1521;53.584;9.938;2023-04-26T07:49:25;10.70;1.00
3023;DHT22;1521;53.584;9.938;2023-04-26T07:51:51;10.50;1.00
3023;DHT22;1521;53.584;9.938;2023-04-26T07:54:17;9.70;1.00
3023;DHT22;1521;53.584;9.938;2023-04-26T07:56:42;9.10;1.00
3023;DHT22;1521;53.584;9.938;2023-04-26T07:59:08;8.50;1.00
3023;DHT22;1521;53.584;9.938;2023-04-26T08:01:33;7.60;1.00
3023;DHT22;1521;53.584;9.938;2023-04-26T08:03:59;6.80;1.00
3023;DHT22;1521;53.584;9.938;2023-04-26T08:06:24;6.20;1.00
3023;DHT22;1521;53.584;9.938;2023-04-26T08:08:51;6.00;99.90
3023;DHT22;1521;53.584;9.938;2023-04-26T08:11:18;6.10;99.90
3023;DHT22;1521;53.584;9.938;2023-04-26T08:13:43;6.30;99.90
3023;DHT22;1521;53.584;9.938;2023-04-26T08:16:09;6.60;99.90
3023;DHT22;1521;53.584;9.938;2023-04-26T08:18:34;6.90;99.90
3023;DHT22;1521;53.584;9.938;2023-04-26T08:21:01;7.10;99.90
3023;DHT22;1521;53.584;9.938;2023-04-26T08:23:27;7.20;90.50
3023;DHT22;1521;53.584;9.938;2023-04-26T08:25:53;7.40;92.20
3023;DHT22;1521;53.584;9.938;2023-04-26T08:28:18;7.80;99.90
3023;DHT22;1521;53.584;9.938;2023-04-26T08:30:44;8.20;1.00
3023;DHT22;1521;53.584;9.938;2023-04-26T08:33:10;8.70;1.00
3023;DHT22;1521;53.584;9.938;2023-04-26T08:35:35;8.80;1.00
3023;DHT22;1521;53.584;9.938;2023-04-26T08:38:01;8.80;1.00
3023;DHT22;1521;53.584;9.938;2023-04-26T08:40:26;9.20;1.00
3023;DHT22;1521;53.584;9.938;2023-04-26T08:42:52;9.90;1.00
3023;DHT22;1521;53.584;9.938;2023-04-26T08:45:19;10.60;1.00
3023;DHT22;1521;53.584;9.938;2023-04-26T08:47:50;11.40;1.00
3023;DHT22;1521;53.584;9.938;2023-04-26T08:50:21;12.20;1.00
3023;DHT22;1521;53.584;9.938;2023-04-26T08:52:49;12.70;1.00
3023;DHT22;1521;53.584;9.938;2023-04-26T08:55:16;13.10;1.00
3023;DHT22;1521;53.584;9.938;2023-04-26T08:57:45;13.30;1.00
3023;DHT22;1521;53.584;9.938;2023-04-26T09:00:11;12.70;1.00
3023;DHT22;1521;53.584;9.938;2023-04-26T09:02:42;12.10;1.00
3023;DHT22;1521;53.584;9.938;2023-04-26T09:05:10;11.50;1.00
3023;DHT22;1521;53.584;9.938;2023-04-26T09:07:43;11.30;1.00
3023;DHT22;1521;53.584;9.938;2023-04-26T09:10:10;11.30;1.00
3023;DHT22;1521;53.584;9.938;2023-04-26T09:12:37;10.90;1.00
3023;DHT22;1521;53.584;9.938;2023-04-26T09:15:04;10.50;1.00
3023;DHT22;1521;53.584;9.938;2023-04-26T09:17:36;10.10;1.00
3023;DHT22;1521;53.584;9.938;2023-04-26T09:22:48;11.40;1.00
3023;DHT22;1521;53.584;9.938;2023-04-26T09:25:16;12.20;1.00
3023;DHT22;1521;53.584;9.938;2023-04-26T09:27:43;12.60;1.00
3023;DHT22;1521;53.584;9.938;2023-04-26T09:30:11;12.20;1.00
3023;DHT22;1521;53.584;9.938;2023-04-26T09:35:34;10.30;1.00
3023;DHT22;1521;53.584;9.938;2023-04-26T09:38:01;9.80;1.00
3023;DHT22;1521;53.584;9.938;2023-04-26T09:40:29;10.00;1.00
3023;DHT22;1521;53.584;9.938;2023-04-26T09:42:56;10.60;1.00
3023;DHT22;1521;53.584;9.938;2023-04-26T09:45:23;11.00;1.00
3023;DHT22;1521;53.584;9.938;2023-04-26T09:47:49;11.30;1.00
3023;DHT22;1521;53.584;9.938;2023-04-26T09:50:26;11.80;1.00
3023;DHT22;1521;53.584;9.938;2023-04-26T09:52:52;12.60;1.00
3023;DHT22;1521;53.584;9.938;2023-04-26T09:55:28;13.00;1.00
3023;DHT22;1521;53.584;9.938;2023-04-26T09:57:57;13.30;1.00
3023;DHT22;1521;53.584;9.938;2023-04-26T10:00:25;12.80;1.00
3023;DHT22;1521;53.584;9.938;2023-04-26T10:02:54;12.40;1.00
3023;DHT22;1521;53.584;9.938;2023-04-26T10:05:21;12.00;1.00
3023;DHT22;1521;53.584;9.938;2023-04-26T10:07:48;11.50;1.00
3023;DHT22;1521;53.584;9.938;2023-04-26T10:10:13;10.80;1.00
3023;DHT22;1521;53.584;9.938;2023-04-26T10:12:40;10.40;1.00
3023;DHT22;1521;53.584;9.938;2023-04-26T10:15:08;10.00;1.00
3023;DHT22;1521;53.584;9.938;2023-04-26T10:17:34;9.80;1.00
3023;DHT22;1521;53.584;9.938;2023-04-26T10:20:00;9.60;1.00
3023;DHT22;1521;53.584;9.938;2023-04-26T10:22:35;9.60;1.00
3023;DHT22;1521;53.584;9.938;2023-04-26T10:25:01;10.30;1.00
3023;DHT22;1521;53.584;9.938;2023-04-26T10:30:10;11.20;1.00
3023;DHT22;1521;53.584;9.938;2023-04-26T10:35:21;12.10;1.00
3023;DHT22;1521;53.584;9.938;2023-04-26T10:40:28;13.20;1.00
3023;DHT22;1521;53.584;9.938;2023-04-26T10:45:45;14.80;1.00
3023;DHT22;1521;53.584;9.938;2023-04-26T10:51:11;13.50;1.00
3023;DHT22;1521;53.584;9.938;2023-04-26T10:56:56;11.10;1.00
3023;DHT22;1521;53.584;9.938;2023-04-26T11:01:34;9.60;1.00
3023;DHT22;1521;53.584;9.938;2023-04-26T11:04:07;9.60;1.00
3023;DHT22;1521;53.584;9.938;2023-04-26T11:06:53;9.90;1.00
3023;DHT22;1521;53.584;9.938;2023-04-26T11:09:38;9.90;1.00
3023;DHT22;1521;53.584;9.938;2023-04-26T11:12:05;10.00;1.00
3023;DHT22;1521;53.584;9.938;2023-04-26T11:14:34;9.90;1.00
3023;DHT22;1521;53.584;9.938;2023-04-26T11:17:04;9.90;1.00
3023;DHT22;1521;53.584;9.938;2023-04-26T11:19:31;10.30;1.00
3023;DHT22;1521;53.584;9.938;2023-04-26T11:21:58;10.80;1.00
3023;DHT22;1521;53.584;9.938;2023-04-26T11:24:24;10.90;1.00
3023;DHT22;1521;53.584;9.938;2023-04-26T11:26:51;10.70;1.00
3023;DHT22;1521;53.584;9.938;2023-04-26T11:29:18;10.50;1.00
3023;DHT22;1521;53.584;9.938;2023-04-26T11:31:51;10.30;1.00
3023;DHT22;1521;53.584;9.938;2023-04-26T11:34:16;10.60;1.00
3023;DHT22;1521;53.584;9.938;2023-04-26T11:36:44;10.90;1.00
3023;DHT22;1521;53.584;9.938;2023-04-26T11:39:10;10.80;1.00
3023;DHT22;1521;53.584;9.938;2023-04-26T11:41:36;10.40;1.00
3023;DHT22;1521;53.584;9.938;2023-04-26T11:44:02;9.90;1.00
3023;DHT22;1521;53.584;9.938;2023-04-26T11:46:28;9.40;1.00
3023;DHT22;1521;53.584;9.938;2023-04-26T11:48:54;9.40;1.00
3023;DHT22;1521;53.584;9.938;2023-04-26T11:51:20;9.80;1.00
3023;DHT22;1521;53.584;9.938;2023-04-26T11:53:46;10.00;1.00
3023;DHT22;1521;53.584;9.938;2023-04-26T11:56:16;11.10;1.00
3023;DHT22;1521;53.584;9.938;2023-04-26T11:58:49;12.70;1.00
3023;DHT22;1521;53.584;9.938;2023-04-26T12:01:25;14.20;1.00
3023;DHT22;1521;53.584;9.938;2023-04-26T12:03:52;15.10;1.00
3023;DHT22;1521;53.584;9.938;2023-04-26T12:06:19;15.60;1.00
3023;DHT22;1521;53.584;9.938;2023-04-26T12:08:51;16.00;1.00
3023;DHT22;1521;53.584;9.938;2023-04-26T12:11:17;15.90;1.00
3023;DHT22;1521;53.584;9.938;2023-04-26T12:13:44;14.90;1.00
3023;DHT22;1521;53.584;9.938;2023-04-26T12:16:11;14.10;1.00
3023;DHT22;1521;53.584;9.938;2023-04-26T12:18:37;13.00;1.00
3023;DHT22;1521;53.584;9.938;2023-04-26T12:21:02;13.00;1.00
3023;DHT22;1521;53.584;9.938;2023-04-26T12:23:36;13.70;1.00
3023;DHT22;1521;53.584;9.938;2023-04-26T12:26:03;14.70;1.00
3023;DHT22;1521;53.584;9.938;2023-04-26T12:28:29;15.30;1.00
3023;DHT22;1521;53.584;9.938;2023-04-26T12:30:55;15.60;1.00
3023;DHT22;1521;53.584;9.938;2023-04-26T12:33:21;14.90;1.00
3023;DHT22;1521;53.584;9.938;2023-04-26T12:35:48;14.70;1.00
3023;DHT22;1521;53.584;9.938;2023-04-26T12:38:14;13.60;1.00
3023;DHT22;1521;53.584;9.938;2023-04-26T12:40:41;12.40;1.00
3023;DHT22;1521;53.584;9.938;2023-04-26T12:43:06;11.50;1.00
3023;DHT22;1521;53.584;9.938;2023-04-26T12:45:32;11.10;1.00
3023;DHT22;1521;53.584;9.938;2023-04-26T12:47:58;10.90;1.00
3023;DHT22;1521;53.584;9.938;2023-04-26T12:50:23;10.60;1.00
3023;DHT22;1521;53.584;9.938;2023-04-26T12:52:49;10.70;1.00
3023;DHT22;1521;53.584;9.938;2023-04-26T12:55:15;10.70;1.00
3023;DHT22;1521;53.584;9.938;2023-04-26T12:57:42;10.70;1.00
3023;DHT22;1521;53.584;9.938;2023-04-26T13:00:13;10.90;1.00
3023;DHT22;1521;53.584;9.938;2023-04-26T13:02:39;11.30;1.00
3023;DHT22;1521;53.584;9.938;2023-04-26T13:05:05;12.00;1.00
3023;DHT22;1521;53.584;9.938;2023-04-26T13:07:33;13.00;1.00
3023;DHT22;1521;53.584;9.938;2023-04-26T13:09:59;13.80;1.00
3023;DHT22;1521;53.584;9.938;2023-04-26T13:12:25;14.50;1.00
3023;DHT22;1521;53.584;9.938;2023-04-26T13:14:51;14.70;1.00
3023;DHT22;1521;53.584;9.938;2023-04-26T13:17:17;14.20;1.00
3023;DHT22;1521;53.584;9.938;2023-04-26T13:19:42;14.10;1.00
3023;DHT22;1521;53.584;9.938;2023-04-26T13:22:10;14.90;1.00
3023;DHT22;1521;53.584;9.938;2023-04-26T13:24:35;15.60;1.00
3023;DHT22;1521;53.584;9.938;2023-04-26T13:27:02;15.80;1.00
3023;DHT22;1521;53.584;9.938;2023-04-26T13:29:28;15.80;1.00
3023;DHT22;1521;53.584;9.938;2023-04-26T13:31:53;15.40;1.00
3023;DHT22;1521;53.584;9.938;2023-04-26T13:34:19;15.10;1.00
3023;DHT22;1521;53.584;9.938;2023-04-26T13:36:45;14.60;1.00
3023;DHT22;1521;53.584;9.938;2023-04-26T13:39:10;13.60;1.00
3023;DHT22;1521;53.584;9.938;2023-04-26T13:41:36;13.80;1.00
3023;DHT22;1521;53.584;9.938;2023-04-26T13:44:03;14.10;1.00
3023;DHT22;1521;53.584;9.938;2023-04-26T13:46:29;14.30;1.00
3023;DHT22;1521;53.584;9.938;2023-04-26T13:48:56;13.40;1.00
3023;DHT22;1521;53.584;9.938;2023-04-26T13:51:22;13.20;1.00
3023;DHT22;1521;53.584;9.938;2023-04-26T13:53:49;13.70;1.00
3023;DHT22;1521;53.584;9.938;2023-04-26T13:56:16;13.90;1.00
3023;DHT22;1521;53.584;9.938;2023-04-26T13:58:42;14.50;1.00
3023;DHT22;1521;53.584;9.938;2023-04-26T14:01:08;14.70;1.00
3023;DHT22;1521;53.584;9.938;2023-04-26T14:03:34;14.80;1.00
3023;DHT22;1521;53.584;9.938;2023-04-26T14:05:59;14.90;1.00
3023;DHT22;1521;53.584;9.938;2023-04-26T14:08:27;14.80;1.00
3023;DHT22;1521;53.584;9.938;2023-04-26T14:10:52;14.70;1.00
3023;DHT22;1521;53.584;9.938;2023-04-26T14:13:18;14.60;1.00
3023;DHT22;1521;53.584;9.938;2023-04-26T14:15:44;14.00;1.00
3023;DHT22;1521;53.584;9.938;2023-04-26T14:18:09;13.70;1.00
3023;DHT22;1521;53.584;9.938;2023-04-26T14:20:35;14.10;1.00
3023;DHT22;1521;53.584;9.938;2023-04-26T14:23:01;14.30;99.90
3023;DHT22;1521;53.584;9.938;2023-04-26T14:25:26;14.40;99.90
3023;DHT22;1521;53.584;9.938;2023-04-26T14:27:52;14.80;99.90
3023;DHT22;1521;53.584;9.938;2023-04-26T14:30:18;14.80;99.90
3023;DHT22;1521;53.584;9.938;2023-04-26T14:32:44;14.70;99.90
3023;DHT22;1521;53.584;9.938;2023-04-26T14:35:10;14.20;99.90
3023;DHT22;1521;53.584;9.938;2023-04-26T14:37:36;14.00;99.90
3023;DHT22;1521;53.584;9.938;2023-04-26T14:40:02;13.50;99.90
3023;DHT22;1521;53.584;9.938;2023-04-26T14:42:28;12.40;99.90
3023;DHT22;1521;53.584;9.938;2023-04-26T14:44:57;11.70;1.00
3023;DHT22;1521;53.584;9.938;2023-04-26T14:47:22;12.20;1.00
3023;DHT22;1521;53.584;9.938;2023-04-26T14:49:48;12.90;1.00
3023;DHT22;1521;53.584;9.938;2023-04-26T14:52:13;13.50;1.00
3023;DHT22;1521;53.584;9.938;2023-04-26T14:54:39;13.20;1.00
3023;DHT22;1521;53.584;9.938;2023-04-26T14:57:06;13.20;1.00
3023;DHT22;1521;53.584;9.938;2023-04-26T14:59:32;13.40;1.00
3023;DHT22;1521;53.584;9.938;2023-04-26T15:01:57;13.40;1.00
3023;DHT22;1521;53.584;9.938;2023-04-26T15:04:23;13.40;1.00
3023;DHT22;1521;53.584;9.938;2023-04-26T15:06:48;13.10;1.00
3023;DHT22;1521;53.584;9.938;2023-04-26T15:09:14;12.90;1.00
3023;DHT22;1521;53.584;9.938;2023-04-26T15:11:41;12.60;1.00
3023;DHT22;1521;53.584;9.938;2023-04-26T15:14:06;12.90;1.00
3023;DHT22;1521;53.584;9.938;2023-04-26T15:16:32;13.00;99.90
3023;DHT22;1521;53.584;9.938;2023-04-26T15:18:57;12.80;1.00
3023;DHT22;1521;53.584;9.938;2023-04-26T15:21:23;12.80;1.00
3023;DHT22;1521;53.584;9.938;2023-04-26T15:23:49;12.60;1.00
3023;DHT22;1521;53.584;9.938;2023-04-26T15:26:14;12.00;1.00
3023;DHT22;1521;53.584;9.938;2023-04-26T15:28:40;11.40;1.00
3023;DHT22;1521;53.584;9.938;2023-04-26T15:31:09;11.00;1.00
3023;DHT22;1521;53.584;9.938;2023-04-26T15:33:35;11.10;1.00
3023;DHT22;1521;53.584;9.938;2023-04-26T15:36:01;11.00;1.00
3023;DHT22;1521;53.584;9.938;2023-04-26T15:38:26;10.60;1.00
3023;DHT22;1521;53.584;9.938;2023-04-26T15:40:52;10.60;1.00
3023;DHT22;1521;53.584;9.938;2023-04-26T15:43:18;10.40;1.00
3023;DHT22;1521;53.584;9.938;2023-04-26T15:45:44;10.40;1.00
3023;DHT22;1521;53.584;9.938;2023-04-26T15:48:10;10.30;1.00
3023;DHT22;1521;53.584;9.938;2023-04-26T15:50:37;10.00;1.00
3023;DHT22;1521;53.584;9.938;2023-04-26T15:53:03;10.00;1.00
3023;DHT22;1521;53.584;9.938;2023-04-26T15:55:31;10.20;1.00
3023;DHT22;1521;53.584;9.938;2023-04-26T15:57:57;10.50;1.00
3023;DHT22;1521;53.584;9.938;2023-04-26T16:00:22;10.50;1.00
3023;DHT22;1521;53.584;9.938;2023-04-26T16:02:48;10.50;1.00
3023;DHT22;1521;53.584;9.938;2023-04-26T16:05:14;10.50;1.00
3023;DHT22;1521;53.584;9.938;2023-04-26T16:07:39;10.50;1.00
3023;DHT22;1521;53.584;9.938;2023-04-26T16:10:07;10.60;1.00
3023;DHT22;1521;53.584;9.938;2023-04-26T16:12:34;10.50;1.00
3023;DHT22;1521;53.584;9.938;2023-04-26T16:15:04;10.20;1.00
3023;DHT22;1521;53.584;9.938;2023-04-26T16:17:31;9.90;1.00
3023;DHT22;1521;53.584;9.938;2023-04-26T16:19:57;9.60;1.00
3023;DHT22;1521;53.584;9.938;2023-04-26T16:22:22;9.50;1.00
3023;DHT22;1521;53.584;9.938;2023-04-26T16:24:48;9.40;1.00
3023;DHT22;1521;53.584;9.938;2023-04-26T16:27:13;9.40;1.00
3023;DHT22;1521;53.584;9.938;2023-04-26T16:29:39;9.30;1.00
3023;DHT22;1521;53.584;9.938;2023-04-26T16:32:04;9.20;1.00
3023;DHT22;1521;53.584;9.938;2023-04-26T16:34:30;9.30;1.00
3023;DHT22;1521;53.584;9.938;2023-04-26T16:36:56;9.40;1.00
3023;DHT22;1521;53.584;9.938;2023-04-26T16:39:21;9.30;1.00
3023;DHT22;1521;53.584;9.938;2023-04-26T16:41:47;9.20;1.00